createdAt,value
2019-04-13T00:01:28.675Z,4.60
2019-04-13T00:03:55.038Z,4.60
2019-04-13T00:06:23.417Z,4.60
2019-04-13T00:08:49.743Z,4.60
2019-04-13T00:11:33.279Z,4.60
2019-04-13T00:13:59.608Z,4.60
2019-04-13T00:16:26.041Z,4.60
2019-04-13T00:18:52.321Z,4.70
2019-04-13T00:21:18.624Z,4.60
2019-04-13T00:23:45.033Z,4.60
2019-04-13T00:26:11.468Z,4.60
2019-04-13T00:28:37.798Z,4.60
2019-04-13T00:31:04.077Z,4.60
2019-04-13T00:33:30.390Z,4.60
2019-04-13T00:35:56.808Z,4.60
2019-04-13T00:38:23.224Z,4.60
2019-04-13T00:40:49.556Z,4.50
2019-04-13T00:43:15.895Z,4.50
2019-04-13T00:45:42.428Z,4.50
2019-04-13T00:48:08.951Z,4.40
2019-04-13T00:50:35.484Z,4.40
2019-04-13T00:53:01.917Z,4.40
2019-04-13T00:55:28.453Z,4.40
2019-04-13T00:57:54.775Z,4.30
2019-04-13T01:00:21.273Z,4.30
2019-04-13T01:02:47.648Z,4.30
2019-04-13T01:05:14.934Z,4.30
2019-04-13T01:07:41.230Z,4.20
2019-04-13T01:10:07.926Z,4.20
2019-04-13T01:12:34.302Z,4.20
2019-04-13T01:15:00.630Z,4.20
2019-04-13T01:17:27.064Z,4.20
2019-04-13T01:19:53.476Z,4.10
2019-04-13T01:22:19.827Z,4.10
2019-04-13T01:24:46.158Z,4.10
2019-04-13T01:27:12.488Z,4.10
2019-04-13T01:29:38.790Z,4.00
2019-04-13T01:32:05.149Z,4.00
2019-04-13T01:34:31.583Z,4.00
2019-04-13T01:36:57.809Z,4.00
2019-04-13T01:39:24.140Z,3.90
2019-04-13T01:41:50.422Z,4.00
2019-04-13T01:44:16.714Z,4.00
2019-04-13T01:46:42.995Z,3.90
2019-04-13T01:49:09.359Z,3.90
2019-04-13T01:51:35.687Z,3.90
2019-04-13T01:54:02.120Z,3.90
2019-04-13T01:56:28.351Z,3.90
2019-04-13T01:58:54.678Z,3.90
2019-04-13T02:01:32.068Z,3.80
2019-04-13T02:04:03.022Z,3.80
2019-04-13T02:06:29.441Z,3.80
2019-04-13T02:09:03.338Z,3.80
2019-04-13T02:11:31.705Z,3.70
2019-04-13T02:13:58.061Z,3.70
2019-04-13T02:16:24.389Z,3.70
2019-04-13T02:18:50.635Z,3.70
2019-04-13T02:21:16.943Z,3.70
2019-04-13T02:23:43.276Z,3.60
2019-04-13T02:26:09.708Z,3.60
2019-04-13T02:28:36.038Z,3.60
2019-04-13T02:31:02.295Z,3.60
2019-04-13T02:33:29.229Z,3.60
2019-04-13T02:35:55.644Z,3.50
2019-04-13T02:38:22.048Z,3.50
2019-04-13T02:40:48.351Z,3.50
2019-04-13T02:43:14.660Z,3.50
2019-04-13T02:45:41.169Z,3.50
2019-04-13T02:48:07.601Z,3.50
2019-04-13T02:50:33.933Z,3.40
2019-04-13T02:53:00.277Z,3.40
2019-04-13T02:55:26.595Z,3.40
2019-04-13T02:57:53.024Z,3.40
2019-04-13T03:00:19.296Z,3.30
2019-04-13T03:02:45.687Z,3.30
2019-04-13T03:05:12.733Z,3.30
2019-04-13T03:07:39.150Z,3.30
2019-04-13T03:10:06.315Z,3.30
2019-04-13T03:12:32.644Z,3.30
2019-04-13T03:14:59.898Z,3.20
2019-04-13T03:17:31.063Z,3.20
2019-04-13T03:19:59.262Z,3.20
2019-04-13T03:22:25.747Z,3.10
2019-04-13T03:24:52.182Z,3.10
2019-04-13T03:27:18.512Z,3.10
2019-04-13T03:29:44.933Z,3.10
2019-04-13T03:32:11.233Z,3.10
2019-04-13T03:34:37.574Z,3.00
2019-04-13T03:37:04.037Z,3.00
2019-04-13T03:39:30.277Z,3.00
2019-04-13T03:41:56.598Z,2.90
2019-04-13T03:44:22.926Z,2.90
2019-04-13T03:46:49.257Z,2.90
2019-04-13T03:49:15.792Z,2.90
2019-04-13T03:55:21.794Z,2.90
2019-04-13T03:57:48.109Z,2.80
2019-04-13T04:00:14.847Z,2.80
2019-04-13T04:02:41.181Z,2.70
2019-04-13T04:05:07.803Z,2.70
2019-04-13T04:07:34.115Z,2.70
2019-04-13T04:10:00.489Z,2.70
2019-04-13T04:12:26.757Z,2.70
2019-04-13T04:14:53.148Z,2.60
2019-04-13T04:17:19.477Z,2.60
2019-04-13T04:19:45.803Z,2.60
2019-04-13T04:22:12.363Z,2.50
2019-04-13T04:24:39.084Z,2.60
2019-04-13T04:27:05.311Z,2.50
2019-04-13T04:29:31.590Z,2.50
2019-04-13T04:31:57.974Z,2.50
2019-04-13T04:34:24.300Z,2.50
2019-04-13T04:36:50.958Z,2.50
2019-04-13T04:39:17.331Z,2.50
2019-04-13T04:41:43.569Z,2.50
2019-04-13T04:44:09.932Z,2.40
2019-04-13T04:46:36.261Z,2.40
2019-04-13T04:49:02.692Z,2.40
2019-04-13T04:51:29.025Z,2.40
2019-04-13T04:53:55.454Z,2.40
2019-04-13T04:56:21.797Z,2.40
2019-04-13T04:58:48.366Z,2.40
2019-04-13T05:01:14.865Z,2.40
2019-04-13T05:03:41.184Z,2.40
2019-04-13T05:06:07.515Z,2.40
2019-04-13T05:08:33.948Z,2.30
2019-04-13T05:11:00.604Z,2.30
2019-04-13T05:13:27.019Z,2.30
2019-04-13T05:15:54.391Z,2.40
2019-04-13T05:18:20.807Z,2.40
2019-04-13T05:20:47.138Z,2.30
2019-04-13T05:23:13.469Z,2.40
2019-04-13T05:25:39.798Z,2.40
2019-04-13T05:28:06.036Z,2.40
2019-04-13T05:30:32.342Z,2.40
2019-04-13T05:32:58.736Z,2.40
2019-04-13T05:35:25.018Z,2.40
2019-04-13T05:37:51.299Z,2.40
2019-04-13T05:40:18.293Z,2.50
2019-04-13T05:42:44.625Z,2.50
2019-04-13T05:45:11.159Z,2.50
2019-04-13T05:47:37.499Z,2.50
2019-04-13T05:50:05.457Z,2.60
2019-04-13T05:52:31.785Z,2.60
2019-04-13T05:54:58.114Z,2.60
2019-04-13T05:57:24.667Z,2.70
2019-04-13T05:59:51.084Z,2.90
2019-04-13T06:02:17.312Z,3.10
2019-04-13T06:04:45.880Z,3.30
2019-04-13T06:07:12.121Z,3.50
2019-04-13T06:09:38.385Z,3.80
2019-04-13T06:12:04.783Z,4.00
2019-04-13T06:14:31.203Z,4.20
2019-04-13T06:16:58.059Z,4.50
2019-04-13T06:19:24.388Z,4.70
2019-04-13T06:21:50.718Z,4.80
2019-04-13T06:24:21.152Z,5.00
2019-04-13T06:26:45.220Z,5.20
2019-04-13T06:29:11.547Z,5.40
2019-04-13T06:31:39.791Z,5.50
2019-04-13T06:34:12.049Z,5.70
2019-04-13T06:36:41.640Z,5.80
2019-04-13T06:39:08.955Z,5.90
2019-04-13T06:41:35.199Z,6.00
2019-04-13T06:44:02.054Z,6.20
2019-04-13T06:46:28.702Z,6.30
2019-04-13T06:48:55.095Z,6.40
2019-04-13T06:51:21.425Z,6.50
2019-04-13T06:53:47.802Z,6.50
2019-04-13T06:56:14.189Z,6.60
2019-04-13T06:58:40.396Z,6.60
2019-04-13T07:01:06.827Z,6.60
2019-04-13T07:03:33.284Z,6.60
2019-04-13T07:06:00.014Z,6.70
2019-04-13T07:08:38.877Z,6.70
2019-04-13T07:11:13.265Z,6.70
2019-04-13T07:13:56.800Z,6.60
2019-04-13T07:16:25.077Z,6.60
2019-04-13T07:18:51.367Z,6.60
2019-04-13T07:21:20.157Z,6.60
2019-04-13T07:23:45.912Z,6.60
2019-04-13T07:26:12.353Z,6.60
2019-04-13T07:28:39.295Z,6.60
2019-04-13T07:31:05.722Z,6.60
2019-04-13T07:33:32.307Z,6.60
2019-04-13T07:36:00.222Z,6.60
2019-04-13T07:38:26.558Z,6.60
2019-04-13T07:40:52.870Z,6.60
2019-04-13T07:43:19.546Z,6.60
2019-04-13T07:45:53.295Z,6.60
2019-04-13T07:48:26.704Z,6.70
2019-04-13T07:50:54.925Z,6.70
2019-04-13T07:53:23.375Z,6.80
2019-04-13T07:55:52.159Z,6.90
2019-04-13T07:58:17.951Z,7.00
2019-04-13T08:00:45.805Z,7.00
2019-04-13T08:03:12.486Z,7.20
2019-04-13T08:05:38.920Z,7.30
2019-04-13T08:08:05.250Z,7.40
2019-04-13T08:10:32.402Z,7.60
2019-04-13T08:12:58.663Z,7.70
2019-04-13T08:15:25.572Z,7.80
2019-04-13T08:17:53.686Z,8.00
2019-04-13T08:20:29.746Z,8.20
2019-04-13T08:22:57.671Z,8.40
2019-04-13T08:25:24.308Z,8.60
2019-04-13T08:27:50.569Z,8.70
2019-04-13T08:30:17.174Z,8.80
2019-04-13T08:32:43.506Z,8.90
2019-04-13T08:35:10.172Z,9.10
2019-04-13T08:37:51.948Z,9.10
2019-04-13T08:40:06.083Z,9.20
2019-04-13T08:42:32.841Z,9.30
2019-04-13T08:44:59.156Z,9.40
2019-04-13T08:47:25.480Z,9.50
2019-04-13T08:49:51.811Z,9.60
2019-04-13T08:52:18.139Z,9.70
2019-04-13T08:54:44.695Z,9.90
2019-04-13T08:57:11.108Z,10.00
2019-04-13T08:59:37.352Z,10.20
2019-04-13T09:02:04.921Z,10.30
2019-04-13T09:04:31.547Z,10.50
2019-04-13T09:07:17.812Z,10.60
2019-04-13T09:09:47.996Z,10.50
2019-04-13T09:12:12.434Z,10.70
2019-04-13T09:14:38.766Z,10.60
2019-04-13T09:17:06.630Z,10.60
2019-04-13T09:19:39.363Z,10.50
2019-04-13T09:22:05.148Z,10.50
2019-04-13T09:24:31.459Z,10.40
2019-04-13T09:26:57.789Z,10.40
2019-04-13T09:29:24.035Z,10.40
2019-04-13T09:31:50.553Z,10.40
2019-04-13T09:34:29.864Z,10.30
2019-04-13T09:36:45.055Z,10.30
2019-04-13T09:39:11.313Z,10.30
2019-04-13T09:41:37.951Z,10.20
2019-04-13T09:44:06.207Z,10.20
2019-04-13T09:46:32.630Z,10.20
2019-04-13T09:48:59.064Z,10.10
2019-04-13T09:51:25.600Z,10.10
2019-04-13T09:53:55.953Z,10.00
2019-04-13T09:56:21.128Z,10.00
2019-04-13T09:58:47.562Z,10.10
2019-04-13T10:01:13.889Z,10.30
2019-04-13T10:03:40.173Z,10.40
2019-04-13T10:06:06.554Z,10.60
2019-04-13T10:08:32.882Z,10.70
2019-04-13T10:11:00.058Z,10.80
2019-04-13T10:13:43.464Z,10.90
2019-04-13T10:16:28.325Z,11.00
2019-04-13T10:18:58.124Z,11.00
2019-04-13T10:21:25.081Z,11.00
2019-04-13T10:23:51.514Z,11.10
2019-04-13T10:26:17.845Z,11.10
2019-04-13T10:28:45.516Z,11.20
2019-04-13T10:31:12.242Z,11.30
2019-04-13T10:33:38.686Z,11.30
2019-04-13T10:36:05.438Z,11.30
2019-04-13T10:38:31.905Z,11.40
2019-04-13T10:40:58.503Z,11.40
2019-04-13T10:43:24.936Z,11.50
2019-04-13T10:46:11.752Z,11.50
2019-04-13T10:48:40.344Z,11.70
2019-04-13T10:51:11.664Z,11.80
2019-04-13T10:53:37.996Z,11.90
2019-04-13T10:56:04.549Z,12.10
2019-04-13T10:58:30.961Z,12.20
2019-04-13T11:00:57.272Z,12.20
2019-04-13T11:03:24.080Z,12.10
2019-04-13T11:05:50.372Z,12.00
2019-04-13T11:08:19.994Z,11.90
2019-04-13T11:10:45.076Z,11.80
2019-04-13T11:13:11.508Z,11.70
2019-04-13T11:15:37.811Z,11.50
2019-04-13T11:18:04.326Z,11.40
2019-04-13T11:20:30.821Z,11.30
2019-04-13T11:22:59.575Z,11.20
2019-04-13T11:25:25.514Z,11.10
2019-04-13T11:27:51.971Z,11.00
2019-04-13T11:30:18.705Z,11.00
2019-04-13T11:32:45.015Z,10.90
2019-04-13T11:35:11.347Z,10.90
2019-04-13T11:37:37.920Z,10.80
2019-04-13T11:40:07.282Z,10.80
2019-04-13T11:42:35.426Z,10.80
2019-04-13T11:45:12.442Z,10.90
2019-04-13T11:47:43.894Z,10.80
2019-04-13T11:50:12.575Z,10.80
2019-04-13T11:52:38.868Z,10.80
2019-04-13T11:55:05.546Z,10.90
2019-04-13T11:57:31.921Z,10.90
2019-04-13T11:59:58.228Z,11.00
2019-04-13T12:02:35.491Z,11.10
2019-04-13T12:05:09.907Z,11.20
2019-04-13T12:07:44.877Z,11.40
2019-04-13T12:10:30.529Z,11.60
2019-04-13T12:13:13.856Z,11.70
2019-04-13T12:15:45.716Z,11.80
2019-04-13T12:18:17.309Z,11.70
2019-04-13T12:21:02.437Z,11.70
2019-04-13T12:23:28.854Z,11.60
2019-04-13T12:25:55.201Z,11.40
2019-04-13T12:28:21.473Z,11.30
2019-04-13T12:30:48.271Z,11.30
2019-04-13T12:33:17.079Z,11.30
2019-04-13T12:35:42.917Z,11.30
2019-04-13T12:38:10.609Z,11.40
2019-04-13T12:40:43.352Z,11.50
2019-04-13T12:43:07.194Z,11.70
2019-04-13T12:45:34.242Z,11.80
2019-04-13T12:48:00.679Z,11.90
2019-04-13T12:50:27.107Z,12.10
2019-04-13T12:52:53.471Z,12.20
2019-04-13T12:55:20.141Z,12.30
2019-04-13T12:57:48.982Z,12.40
2019-04-13T13:00:23.306Z,12.50
2019-04-13T13:02:51.458Z,12.50
2019-04-13T13:05:19.935Z,12.50
2019-04-13T13:07:46.371Z,12.50
2019-04-13T13:10:15.459Z,12.50
2019-04-13T13:12:45.354Z,12.30
2019-04-13T13:15:09.867Z,12.20
2019-04-13T13:17:36.199Z,12.00
2019-04-13T13:20:06.622Z,11.90
2019-04-13T13:22:33.174Z,11.80
2019-04-13T13:24:59.593Z,11.90
2019-04-13T13:27:25.922Z,11.70
2019-04-13T13:29:52.245Z,11.60
2019-04-13T13:32:19.006Z,11.60
2019-04-13T13:34:45.427Z,11.50
2019-04-13T13:37:11.755Z,11.50
2019-04-13T13:39:38.049Z,11.60
2019-04-13T13:42:04.762Z,11.50
2019-04-13T13:44:31.080Z,11.50
2019-04-13T13:46:57.798Z,11.50
2019-04-13T13:49:24.227Z,11.50
2019-04-13T13:51:56.037Z,11.50
2019-04-13T13:54:18.700Z,11.50
2019-04-13T13:56:45.060Z,11.50
2019-04-13T13:59:11.391Z,11.50
2019-04-13T14:01:43.348Z,11.60
2019-04-13T14:04:10.605Z,11.60
2019-04-13T14:06:36.937Z,11.60
2019-04-13T14:09:08.528Z,11.70
2019-04-13T14:11:36.936Z,11.80
2019-04-13T14:14:03.196Z,11.90
2019-04-13T14:16:29.634Z,12.00
2019-04-13T14:18:57.466Z,12.10
2019-04-13T14:21:24.106Z,12.30
2019-04-13T14:23:50.462Z,12.40
2019-04-13T14:26:17.013Z,12.60
2019-04-13T14:28:43.324Z,12.70
2019-04-13T14:31:09.728Z,12.90
2019-04-13T14:33:36.091Z,12.90
2019-04-13T14:36:02.526Z,12.90
2019-04-13T14:38:28.857Z,12.70
2019-04-13T14:40:56.305Z,12.50
2019-04-13T14:43:36.164Z,12.30
2019-04-13T14:46:04.253Z,12.00
2019-04-13T14:48:30.662Z,11.80
2019-04-13T14:50:56.992Z,11.60
2019-04-13T14:53:23.293Z,11.50
2019-04-13T14:55:49.872Z,11.30
2019-04-13T14:58:16.184Z,11.20
2019-04-13T15:00:42.523Z,11.10
2019-04-13T15:03:08.853Z,11.10
2019-04-13T15:05:35.092Z,11.00
2019-04-13T15:08:02.439Z,11.00
2019-04-13T15:10:28.763Z,11.00
2019-04-13T15:12:55.091Z,11.00
2019-04-13T15:15:22.309Z,11.10
2019-04-13T15:17:51.446Z,11.20
2019-04-13T15:20:22.043Z,11.30
2019-04-13T15:22:46.865Z,11.30
2019-04-13T15:25:13.955Z,11.40
2019-04-13T15:27:44.101Z,11.40
2019-04-13T15:30:16.034Z,11.50
2019-04-13T15:32:43.041Z,11.60
2019-04-13T15:35:13.673Z,11.70
2019-04-13T15:37:42.258Z,11.80
2019-04-13T15:40:06.707Z,11.90
2019-04-13T15:42:40.584Z,12.10
2019-04-13T15:45:01.249Z,12.10
2019-04-13T15:47:28.767Z,12.10
2019-04-13T15:49:56.603Z,12.10
2019-04-13T15:52:24.152Z,12.00
2019-04-13T15:54:51.425Z,11.80
2019-04-13T15:57:18.163Z,11.70
2019-04-13T15:59:45.757Z,11.50
2019-04-13T16:02:12.260Z,11.30
2019-04-13T16:04:39.587Z,11.10
2019-04-13T16:07:07.548Z,10.80
2019-04-13T16:09:37.066Z,10.60
2019-04-13T16:12:08.751Z,10.40
2019-04-13T16:14:35.272Z,10.20
2019-04-13T16:17:03.154Z,10.10
2019-04-13T16:19:30.776Z,10.00
2019-04-13T16:21:58.174Z,9.90
2019-04-13T16:24:24.754Z,9.80
2019-04-13T16:26:51.090Z,9.80
2019-04-13T16:29:25.297Z,9.70
2019-04-13T16:32:05.968Z,9.70
2019-04-13T16:34:41.408Z,9.70
2019-04-13T16:37:13.358Z,9.70
2019-04-13T16:39:39.700Z,9.60
2019-04-13T16:42:14.840Z,9.60
2019-04-13T16:44:36.061Z,9.60
2019-04-13T16:47:07.945Z,9.50
2019-04-13T16:49:40.073Z,9.50
2019-04-13T16:52:11.482Z,9.40
2019-04-13T16:54:50.629Z,9.40
2019-04-13T16:57:13.049Z,9.30
2019-04-13T16:59:47.744Z,9.30
2019-04-13T17:02:34.221Z,9.20
2019-04-13T17:05:05.266Z,9.10
2019-04-13T17:07:31.855Z,9.00
2019-04-13T17:09:59.928Z,8.90
2019-04-13T17:12:35.059Z,8.80
2019-04-13T17:14:54.579Z,8.80
2019-04-13T17:17:22.022Z,8.70
2019-04-13T17:19:51.321Z,8.70
2019-04-13T17:22:22.521Z,8.70
2019-04-13T17:24:53.460Z,8.60
2019-04-13T17:27:34.005Z,8.60
2019-04-13T17:30:19.666Z,8.60
2019-04-13T17:32:51.965Z,8.60
2019-04-13T17:35:22.908Z,8.50
2019-04-13T17:37:50.485Z,8.50
2019-04-13T17:40:19.724Z,8.50
2019-04-13T17:42:49.669Z,8.50
2019-04-13T17:45:25.305Z,8.50
2019-04-13T17:48:00.207Z,8.50
2019-04-13T17:50:37.309Z,8.50
2019-04-13T17:53:22.145Z,8.50
2019-04-13T17:55:50.583Z,8.40
2019-04-13T17:58:23.139Z,8.40
2019-04-13T18:01:06.427Z,8.40
2019-04-13T18:03:38.541Z,8.40
2019-04-13T18:06:08.768Z,8.40
2019-04-13T18:08:50.589Z,8.40
2019-04-13T18:11:17.397Z,8.40
2019-04-13T18:13:51.690Z,8.40
2019-04-13T18:16:27.985Z,8.50
2019-04-13T18:18:56.239Z,8.50
2019-04-13T18:21:24.175Z,8.50
2019-04-13T18:23:50.676Z,8.50
2019-04-13T18:26:16.970Z,8.50
2019-04-13T18:28:44.267Z,8.40
2019-04-13T18:31:10.802Z,8.40
2019-04-13T18:33:37.289Z,8.30
2019-04-13T18:36:04.888Z,8.30
2019-04-13T18:38:31.486Z,8.20
2019-04-13T18:40:57.716Z,8.10
2019-04-13T18:43:27.648Z,8.10
2019-04-13T18:45:53.643Z,8.00
2019-04-13T18:48:20.630Z,7.90
2019-04-13T18:50:47.632Z,7.80
2019-04-13T18:53:14.836Z,7.70
2019-04-13T18:55:41.330Z,7.70
2019-04-13T18:58:10.721Z,7.50
2019-04-13T19:00:36.411Z,7.50
2019-04-13T19:03:03.235Z,7.40
2019-04-13T19:05:29.621Z,7.30
2019-04-13T19:07:55.953Z,7.20
2019-04-13T19:10:22.402Z,7.20
2019-04-13T19:12:48.827Z,7.00
2019-04-13T19:15:15.248Z,7.00
2019-04-13T19:17:41.584Z,6.90
2019-04-13T19:20:08.114Z,6.80
2019-04-13T19:22:34.784Z,6.70
2019-04-13T19:25:01.492Z,6.70
2019-04-13T19:27:27.824Z,6.50
2019-04-13T19:29:54.357Z,6.50
2019-04-13T19:32:20.707Z,6.40
2019-04-13T19:34:47.119Z,6.30
2019-04-13T19:37:13.553Z,6.30
2019-04-13T19:39:39.780Z,6.20
2019-04-13T19:42:06.326Z,6.20
2019-04-13T19:44:32.747Z,6.10
2019-04-13T19:46:59.082Z,6.10
2019-04-13T19:49:25.515Z,6.00
2019-04-13T19:52:06.040Z,6.00
2019-04-13T19:54:32.917Z,5.90
2019-04-13T19:56:59.354Z,5.80
2019-04-13T19:59:25.783Z,5.80
2019-04-13T20:01:52.109Z,5.70
2019-04-13T20:04:18.442Z,5.70
2019-04-13T20:06:44.877Z,5.70
2019-04-13T20:09:11.312Z,5.60
2019-04-13T20:11:37.747Z,5.60
2019-04-13T20:14:08.687Z,5.60
2019-04-13T20:16:32.685Z,5.50
2019-04-13T20:18:59.706Z,5.50
2019-04-13T20:21:26.143Z,5.50
2019-04-13T20:23:52.882Z,5.40
2019-04-13T20:26:19.350Z,5.40
2019-04-13T20:28:46.165Z,5.50
2019-04-13T20:31:13.689Z,5.40
2019-04-13T20:33:40.369Z,5.40
2019-04-13T20:36:11.356Z,5.50
2019-04-13T20:38:35.055Z,5.40
2019-04-13T20:41:12.685Z,5.40
2019-04-13T20:43:48.712Z,5.40
2019-04-13T20:46:08.155Z,5.40
2019-04-13T20:48:35.691Z,5.30
2019-04-13T20:51:02.195Z,5.30
2019-04-13T20:53:28.884Z,5.30
2019-04-13T20:55:55.318Z,5.20
2019-04-13T20:58:22.619Z,5.20
2019-04-13T21:00:49.372Z,5.20
2019-04-13T21:03:16.479Z,5.20
2019-04-13T21:05:42.939Z,5.20
2019-04-13T21:08:10.415Z,5.10
2019-04-13T21:10:36.909Z,5.10
2019-04-13T21:13:03.244Z,5.10
2019-04-13T21:15:29.495Z,5.10
2019-04-13T21:17:57.141Z,5.00
2019-04-13T21:20:23.665Z,5.00
2019-04-13T21:22:50.706Z,5.00
2019-04-13T21:25:18.353Z,5.00
2019-04-13T21:27:44.682Z,5.00
2019-04-13T21:30:12.367Z,5.00
2019-04-13T21:32:38.649Z,5.00
2019-04-13T21:35:05.781Z,4.90
2019-04-13T21:37:33.461Z,4.90
2019-04-13T21:39:59.835Z,4.90
2019-04-13T21:42:26.145Z,4.80
2019-04-13T21:44:53.033Z,4.80
2019-04-13T21:47:20.523Z,4.80
2019-04-13T21:49:47.038Z,4.80
2019-04-13T21:52:19.114Z,4.80
2019-04-13T21:54:45.596Z,4.80
2019-04-13T21:57:13.231Z,4.80
2019-04-13T21:59:39.796Z,4.80
2019-04-13T22:02:11.498Z,4.80
2019-04-13T22:04:39.046Z,4.80
2019-04-13T22:07:05.578Z,4.80
2019-04-13T22:09:32.664Z,4.80
2019-04-13T22:12:00.216Z,4.80
2019-04-13T22:14:39.476Z,4.80
2019-04-13T22:16:56.494Z,4.80
2019-04-13T22:19:22.930Z,4.80
2019-04-13T22:21:50.141Z,4.80
2019-04-13T22:24:16.614Z,4.70
2019-04-13T22:26:43.622Z,4.70
2019-04-13T22:29:29.091Z,4.70
2019-04-13T22:32:14.509Z,4.70
2019-04-13T22:34:46.663Z,4.70
2019-04-13T22:37:13.119Z,4.70
2019-04-13T22:39:40.031Z,4.60
2019-04-13T22:42:07.711Z,4.60
2019-04-13T22:44:44.520Z,4.60
2019-04-13T22:47:03.839Z,4.60
2019-04-13T22:49:32.299Z,4.60
2019-04-13T22:52:06.665Z,4.60
2019-04-13T22:54:38.785Z,4.60
2019-04-13T22:57:23.808Z,4.60
2019-04-13T22:59:50.817Z,4.60
2019-04-13T23:02:21.780Z,4.50
2019-04-13T23:04:49.348Z,4.50
2019-04-13T23:07:15.796Z,4.50
2019-04-13T23:09:43.088Z,4.50
2019-04-13T23:12:09.460Z,4.50
2019-04-13T23:14:37.191Z,4.50
2019-04-13T23:17:03.656Z,4.50
2019-04-13T23:19:30.775Z,4.50
2019-04-13T23:21:57.272Z,4.40
2019-04-13T23:24:23.674Z,4.40
2019-04-13T23:26:50.107Z,4.40
2019-04-13T23:29:17.091Z,4.40
2019-04-13T23:31:43.588Z,4.40
2019-04-13T23:34:09.915Z,4.40
2019-04-13T23:36:37.544Z,4.40
2019-04-13T23:39:06.228Z,4.40
2019-04-13T23:41:32.588Z,4.40
2019-04-13T23:43:58.923Z,4.40
2019-04-13T23:46:26.327Z,4.40
2019-04-13T23:48:52.823Z,4.40
2019-04-13T23:51:19.245Z,4.40
2019-04-13T23:53:46.571Z,4.30
2019-04-13T23:56:21.556Z,4.30
2019-04-13T23:59:05.066Z,4.30
